sensor_id;sensor_type;location;lat;lon;timestamp;P1;durP1;ratioP1;P2;durP2;ratioP2
45356;SDS011;31092;51.924;21.448;2024-03-08T00:01:59;16.98;;;8.10;;
45356;SDS011;31092;51.924;21.448;2024-03-08T00:04:25;13.50;;;7.25;;
45356;SDS011;31092;51.924;21.448;2024-03-08T00:06:50;14.80;;;7.57;;
45356;SDS011;31092;51.924;21.448;2024-03-08T00:09:16;24.50;;;9.38;;
45356;SDS011;31092;51.924;21.448;2024-03-08T00:11:41;20.65;;;8.70;;
45356;SDS011;31092;51.924;21.448;2024-03-08T00:14:07;22.42;;;9.10;;
45356;SDS011;31092;51.924;21.448;2024-03-08T00:16:33;23.10;;;8.88;;
45356;SDS011;31092;51.924;21.448;2024-03-08T00:18:59;19.02;;;8.20;;
45356;SDS011;31092;51.924;21.448;2024-03-08T00:21:24;25.80;;;9.40;;
45356;SDS011;31092;51.924;21.448;2024-03-08T00:23:51;17.52;;;8.45;;
45356;SDS011;31092;51.924;21.448;2024-03-08T00:26:19;19.30;;;7.38;;
45356;SDS011;31092;51.924;21.448;2024-03-08T00:28:45;17.92;;;7.82;;
45356;SDS011;31092;51.924;21.448;2024-03-08T00:31:10;20.02;;;8.55;;
45356;SDS011;31092;51.924;21.448;2024-03-08T00:33:35;21.10;;;8.50;;
45356;SDS011;31092;51.924;21.448;2024-03-08T00:36:01;18.27;;;8.73;;
45356;SDS011;31092;51.924;21.448;2024-03-08T00:38:27;22.80;;;8.88;;
45356;SDS011;31092;51.924;21.448;2024-03-08T00:40:53;26.25;;;9.35;;
45356;SDS011;31092;51.924;21.448;2024-03-08T00:43:18;23.30;;;9.25;;
45356;SDS011;31092;51.924;21.448;2024-03-08T00:45:44;18.63;;;9.20;;
45356;SDS011;31092;51.924;21.448;2024-03-08T00:48:09;21.58;;;9.25;;
45356;SDS011;31092;51.924;21.448;2024-03-08T00:50:36;23.35;;;9.57;;
45356;SDS011;31092;51.924;21.448;2024-03-08T00:53:01;19.30;;;8.80;;
45356;SDS011;31092;51.924;21.448;2024-03-08T00:55:27;16.85;;;8.95;;
45356;SDS011;31092;51.924;21.448;2024-03-08T00:57:54;19.70;;;8.25;;
45356;SDS011;31092;51.924;21.448;2024-03-08T01:00:20;28.45;;;9.60;;
45356;SDS011;31092;51.924;21.448;2024-03-08T01:02:46;23.90;;;9.50;;
45356;SDS011;31092;51.924;21.448;2024-03-08T01:05:11;23.30;;;8.85;;
45356;SDS011;31092;51.924;21.448;2024-03-08T01:07:38;22.50;;;9.32;;
45356;SDS011;31092;51.924;21.448;2024-03-08T01:10:04;23.15;;;8.80;;
45356;SDS011;31092;51.924;21.448;2024-03-08T01:12:34;26.90;;;9.70;;
45356;SDS011;31092;51.924;21.448;2024-03-08T01:15:00;21.50;;;9.75;;
45356;SDS011;31092;51.924;21.448;2024-03-08T01:17:25;22.30;;;9.95;;
45356;SDS011;31092;51.924;21.448;2024-03-08T01:19:51;26.10;;;9.02;;
45356;SDS011;31092;51.924;21.448;2024-03-08T01:22:18;19.67;;;9.27;;
45356;SDS011;31092;51.924;21.448;2024-03-08T01:24:44;21.98;;;8.95;;
45356;SDS011;31092;51.924;21.448;2024-03-08T01:27:09;24.45;;;10.05;;
45356;SDS011;31092;51.924;21.448;2024-03-08T01:29:35;19.05;;;9.00;;
45356;SDS011;31092;51.924;21.448;2024-03-08T01:32:00;20.92;;;8.80;;
45356;SDS011;31092;51.924;21.448;2024-03-08T01:34:27;19.42;;;9.38;;
45356;SDS011;31092;51.924;21.448;2024-03-08T01:36:53;18.02;;;9.82;;
45356;SDS011;31092;51.924;21.448;2024-03-08T01:39:21;20.77;;;8.80;;
45356;SDS011;31092;51.924;21.448;2024-03-08T01:41:47;16.95;;;9.48;;
45356;SDS011;31092;51.924;21.448;2024-03-08T01:44:13;22.48;;;8.57;;
45356;SDS011;31092;51.924;21.448;2024-03-08T01:46:43;17.90;;;9.38;;
45356;SDS011;31092;51.924;21.448;2024-03-08T01:49:09;21.60;;;8.93;;
45356;SDS011;31092;51.924;21.448;2024-03-08T01:51:36;28.65;;;10.68;;
45356;SDS011;31092;51.924;21.448;2024-03-08T01:54:03;24.40;;;9.77;;
45356;SDS011;31092;51.924;21.448;2024-03-08T01:56:29;19.02;;;9.73;;
45356;SDS011;31092;51.924;21.448;2024-03-08T01:58:56;21.70;;;10.05;;
45356;SDS011;31092;51.924;21.448;2024-03-08T02:01:24;21.23;;;9.55;;
45356;SDS011;31092;51.924;21.448;2024-03-08T02:03:50;30.42;;;10.57;;
45356;SDS011;31092;51.924;21.448;2024-03-08T02:06:15;24.52;;;9.98;;
45356;SDS011;31092;51.924;21.448;2024-03-08T02:08:42;24.73;;;9.10;;
45356;SDS011;31092;51.924;21.448;2024-03-08T02:11:11;15.07;;;8.35;;
45356;SDS011;31092;51.924;21.448;2024-03-08T02:13:37;25.38;;;9.70;;
45356;SDS011;31092;51.924;21.448;2024-03-08T02:16:02;25.80;;;9.45;;
45356;SDS011;31092;51.924;21.448;2024-03-08T02:18:29;23.77;;;10.45;;
45356;SDS011;31092;51.924;21.448;2024-03-08T02:20:56;26.15;;;9.50;;
45356;SDS011;31092;51.924;21.448;2024-03-08T02:23:23;22.98;;;9.18;;
45356;SDS011;31092;51.924;21.448;2024-03-08T02:25:51;25.58;;;9.63;;
45356;SDS011;31092;51.924;21.448;2024-03-08T02:28:18;20.65;;;9.93;;
45356;SDS011;31092;51.924;21.448;2024-03-08T02:30:44;27.45;;;10.25;;
45356;SDS011;31092;51.924;21.448;2024-03-08T02:33:13;24.88;;;9.88;;
45356;SDS011;31092;51.924;21.448;2024-03-08T02:35:42;21.83;;;9.38;;
45356;SDS011;31092;51.924;21.448;2024-03-08T02:38:11;23.10;;;8.82;;
45356;SDS011;31092;51.924;21.448;2024-03-08T02:40:38;33.10;;;9.77;;
45356;SDS011;31092;51.924;21.448;2024-03-08T02:43:03;22.92;;;10.77;;
45356;SDS011;31092;51.924;21.448;2024-03-08T02:45:30;20.13;;;10.57;;
45356;SDS011;31092;51.924;21.448;2024-03-08T02:47:55;21.48;;;9.95;;
45356;SDS011;31092;51.924;21.448;2024-03-08T02:50:21;23.70;;;9.88;;
45356;SDS011;31092;51.924;21.448;2024-03-08T02:52:47;24.73;;;10.77;;
45356;SDS011;31092;51.924;21.448;2024-03-08T02:55:13;17.77;;;8.38;;
45356;SDS011;31092;51.924;21.448;2024-03-08T02:57:42;20.33;;;9.70;;
45356;SDS011;31092;51.924;21.448;2024-03-08T03:00:12;24.52;;;10.75;;
45356;SDS011;31092;51.924;21.448;2024-03-08T03:02:38;32.58;;;9.93;;
45356;SDS011;31092;51.924;21.448;2024-03-08T03:05:04;21.40;;;9.20;;
45356;SDS011;31092;51.924;21.448;2024-03-08T03:07:34;19.45;;;9.13;;
45356;SDS011;31092;51.924;21.448;2024-03-08T03:10:00;30.92;;;11.10;;
45356;SDS011;31092;51.924;21.448;2024-03-08T03:12:27;21.70;;;8.75;;
45356;SDS011;31092;51.924;21.448;2024-03-08T03:14:53;21.63;;;10.00;;
45356;SDS011;31092;51.924;21.448;2024-03-08T03:17:18;25.55;;;11.18;;
45356;SDS011;31092;51.924;21.448;2024-03-08T03:19:45;21.63;;;9.90;;
45356;SDS011;31092;51.924;21.448;2024-03-08T03:22:11;22.80;;;10.18;;
45356;SDS011;31092;51.924;21.448;2024-03-08T03:24:37;26.17;;;11.35;;
45356;SDS011;31092;51.924;21.448;2024-03-08T03:27:07;21.33;;;10.50;;
45356;SDS011;31092;51.924;21.448;2024-03-08T03:29:39;20.90;;;9.15;;
45356;SDS011;31092;51.924;21.448;2024-03-08T03:32:07;17.70;;;8.20;;
45356;SDS011;31092;51.924;21.448;2024-03-08T03:34:33;32.78;;;9.48;;
45356;SDS011;31092;51.924;21.448;2024-03-08T03:37:02;20.77;;;9.75;;
45356;SDS011;31092;51.924;21.448;2024-03-08T03:39:28;26.38;;;10.63;;
45356;SDS011;31092;51.924;21.448;2024-03-08T03:41:57;18.90;;;8.52;;
45356;SDS011;31092;51.924;21.448;2024-03-08T03:44:23;18.45;;;9.38;;
45356;SDS011;31092;51.924;21.448;2024-03-08T03:46:49;29.13;;;10.13;;
45356;SDS011;31092;51.924;21.448;2024-03-08T03:49:15;19.90;;;9.32;;
45356;SDS011;31092;51.924;21.448;2024-03-08T03:51:42;26.13;;;9.15;;
45356;SDS011;31092;51.924;21.448;2024-03-08T03:54:08;23.08;;;11.38;;
45356;SDS011;31092;51.924;21.448;2024-03-08T03:56:33;22.25;;;8.88;;
45356;SDS011;31092;51.924;21.448;2024-03-08T03:58:58;20.35;;;8.52;;
45356;SDS011;31092;51.924;21.448;2024-03-08T04:01:24;25.58;;;10.27;;
45356;SDS011;31092;51.924;21.448;2024-03-08T04:03:49;15.82;;;7.93;;
45356;SDS011;31092;51.924;21.448;2024-03-08T04:06:15;19.17;;;9.55;;
45356;SDS011;31092;51.924;21.448;2024-03-08T04:08:40;24.15;;;9.55;;
45356;SDS011;31092;51.924;21.448;2024-03-08T04:11:06;21.83;;;10.43;;
45356;SDS011;31092;51.924;21.448;2024-03-08T04:13:33;20.33;;;8.45;;
45356;SDS011;31092;51.924;21.448;2024-03-08T04:15:59;24.17;;;10.30;;
45356;SDS011;31092;51.924;21.448;2024-03-08T04:18:25;20.63;;;10.88;;
45356;SDS011;31092;51.924;21.448;2024-03-08T04:20:50;19.92;;;9.52;;
45356;SDS011;31092;51.924;21.448;2024-03-08T04:23:16;28.00;;;9.13;;
45356;SDS011;31092;51.924;21.448;2024-03-08T04:25:43;24.30;;;10.18;;
45356;SDS011;31092;51.924;21.448;2024-03-08T04:28:08;28.30;;;10.80;;
45356;SDS011;31092;51.924;21.448;2024-03-08T04:30:39;22.92;;;8.98;;
45356;SDS011;31092;51.924;21.448;2024-03-08T04:33:05;24.95;;;9.15;;
45356;SDS011;31092;51.924;21.448;2024-03-08T04:35:33;24.02;;;9.85;;
45356;SDS011;31092;51.924;21.448;2024-03-08T04:37:59;25.15;;;9.82;;
45356;SDS011;31092;51.924;21.448;2024-03-08T04:40:25;26.65;;;11.38;;
45356;SDS011;31092;51.924;21.448;2024-03-08T04:42:50;22.33;;;9.52;;
45356;SDS011;31092;51.924;21.448;2024-03-08T04:45:17;17.13;;;8.68;;
45356;SDS011;31092;51.924;21.448;2024-03-08T04:47:42;19.98;;;10.05;;
45356;SDS011;31092;51.924;21.448;2024-03-08T04:50:08;22.98;;;10.30;;
45356;SDS011;31092;51.924;21.448;2024-03-08T04:52:34;18.10;;;9.07;;
45356;SDS011;31092;51.924;21.448;2024-03-08T04:55:00;18.48;;;9.57;;
45356;SDS011;31092;51.924;21.448;2024-03-08T04:57:29;21.00;;;10.18;;
45356;SDS011;31092;51.924;21.448;2024-03-08T04:59:54;25.20;;;10.13;;
45356;SDS011;31092;51.924;21.448;2024-03-08T05:02:20;18.77;;;8.77;;
45356;SDS011;31092;51.924;21.448;2024-03-08T05:04:47;18.60;;;9.02;;
45356;SDS011;31092;51.924;21.448;2024-03-08T05:07:13;30.58;;;10.45;;
45356;SDS011;31092;51.924;21.448;2024-03-08T05:09:38;30.38;;;9.57;;
45356;SDS011;31092;51.924;21.448;2024-03-08T05:12:06;18.45;;;8.45;;
45356;SDS011;31092;51.924;21.448;2024-03-08T05:14:32;18.13;;;9.13;;
45356;SDS011;31092;51.924;21.448;2024-03-08T05:17:00;25.67;;;9.10;;
45356;SDS011;31092;51.924;21.448;2024-03-08T05:19:26;16.63;;;7.45;;
45356;SDS011;31092;51.924;21.448;2024-03-08T05:21:51;28.50;;;10.63;;
45356;SDS011;31092;51.924;21.448;2024-03-08T05:24:17;22.88;;;10.13;;
45356;SDS011;31092;51.924;21.448;2024-03-08T05:26:43;24.95;;;11.25;;
45356;SDS011;31092;51.924;21.448;2024-03-08T05:29:09;18.60;;;9.10;;
45356;SDS011;31092;51.924;21.448;2024-03-08T05:31:50;24.08;;;9.85;;
45356;SDS011;31092;51.924;21.448;2024-03-08T05:34:17;26.90;;;10.13;;
45356;SDS011;31092;51.924;21.448;2024-03-08T05:36:44;29.90;;;9.95;;
45356;SDS011;31092;51.924;21.448;2024-03-08T05:39:11;24.20;;;10.23;;
45356;SDS011;31092;51.924;21.448;2024-03-08T05:41:38;27.15;;;10.88;;
45356;SDS011;31092;51.924;21.448;2024-03-08T05:44:06;23.95;;;10.25;;
45356;SDS011;31092;51.924;21.448;2024-03-08T05:46:33;20.75;;;8.95;;
45356;SDS011;31092;51.924;21.448;2024-03-08T05:48:59;23.48;;;9.82;;
45356;SDS011;31092;51.924;21.448;2024-03-08T05:51:24;20.83;;;9.98;;
45356;SDS011;31092;51.924;21.448;2024-03-08T05:53:53;23.13;;;9.35;;
45356;SDS011;31092;51.924;21.448;2024-03-08T05:56:21;22.25;;;10.40;;
45356;SDS011;31092;51.924;21.448;2024-03-08T05:58:50;23.55;;;11.43;;
45356;SDS011;31092;51.924;21.448;2024-03-08T06:01:15;24.25;;;11.73;;
45356;SDS011;31092;51.924;21.448;2024-03-08T06:03:41;26.52;;;12.63;;
45356;SDS011;31092;51.924;21.448;2024-03-08T06:06:13;27.35;;;11.35;;
45356;SDS011;31092;51.924;21.448;2024-03-08T06:08:39;32.78;;;13.48;;
45356;SDS011;31092;51.924;21.448;2024-03-08T06:11:05;26.73;;;13.10;;
45356;SDS011;31092;51.924;21.448;2024-03-08T06:13:34;29.45;;;13.95;;
45356;SDS011;31092;51.924;21.448;2024-03-08T06:16:00;29.80;;;12.88;;
45356;SDS011;31092;51.924;21.448;2024-03-08T06:18:32;34.80;;;13.60;;
45356;SDS011;31092;51.924;21.448;2024-03-08T06:21:06;30.17;;;15.10;;
45356;SDS011;31092;51.924;21.448;2024-03-08T06:23:32;33.92;;;14.00;;
45356;SDS011;31092;51.924;21.448;2024-03-08T06:25:58;35.83;;;16.52;;
45356;SDS011;31092;51.924;21.448;2024-03-08T06:28:24;27.98;;;13.30;;
45356;SDS011;31092;51.924;21.448;2024-03-08T06:30:49;38.00;;;16.17;;
45356;SDS011;31092;51.924;21.448;2024-03-08T06:33:16;33.05;;;15.60;;
45356;SDS011;31092;51.924;21.448;2024-03-08T06:35:42;35.78;;;16.02;;
45356;SDS011;31092;51.924;21.448;2024-03-08T06:38:07;34.33;;;14.38;;
45356;SDS011;31092;51.924;21.448;2024-03-08T06:40:33;36.38;;;16.38;;
45356;SDS011;31092;51.924;21.448;2024-03-08T06:42:58;35.88;;;13.10;;
45356;SDS011;31092;51.924;21.448;2024-03-08T06:45:24;33.38;;;14.73;;
45356;SDS011;31092;51.924;21.448;2024-03-08T06:47:50;34.03;;;15.55;;
45356;SDS011;31092;51.924;21.448;2024-03-08T06:50:16;36.40;;;18.95;;
45356;SDS011;31092;51.924;21.448;2024-03-08T06:52:42;37.40;;;17.27;;
45356;SDS011;31092;51.924;21.448;2024-03-08T06:55:08;42.15;;;17.00;;
45356;SDS011;31092;51.924;21.448;2024-03-08T06:57:37;37.00;;;17.15;;
45356;SDS011;31092;51.924;21.448;2024-03-08T07:00:06;44.80;;;18.15;;
45356;SDS011;31092;51.924;21.448;2024-03-08T07:02:35;40.95;;;16.92;;
45356;SDS011;31092;51.924;21.448;2024-03-08T07:05:00;47.60;;;17.98;;
45356;SDS011;31092;51.924;21.448;2024-03-08T07:07:26;37.97;;;17.35;;
45356;SDS011;31092;51.924;21.448;2024-03-08T07:09:52;47.50;;;17.15;;
45356;SDS011;31092;51.924;21.448;2024-03-08T07:12:17;40.78;;;18.42;;
45356;SDS011;31092;51.924;21.448;2024-03-08T07:14:43;39.95;;;17.52;;
45356;SDS011;31092;51.924;21.448;2024-03-08T07:17:10;39.20;;;17.58;;
45356;SDS011;31092;51.924;21.448;2024-03-08T07:19:36;41.15;;;17.65;;
45356;SDS011;31092;51.924;21.448;2024-03-08T07:22:03;43.17;;;17.95;;
45356;SDS011;31092;51.924;21.448;2024-03-08T07:24:30;46.67;;;18.60;;
45356;SDS011;31092;51.924;21.448;2024-03-08T07:27:21;45.60;;;18.55;;
45356;SDS011;31092;51.924;21.448;2024-03-08T07:29:46;37.47;;;18.15;;
45356;SDS011;31092;51.924;21.448;2024-03-08T07:32:13;44.78;;;20.08;;
45356;SDS011;31092;51.924;21.448;2024-03-08T07:34:48;42.53;;;20.05;;
45356;SDS011;31092;51.924;21.448;2024-03-08T07:37:15;44.38;;;19.15;;
45356;SDS011;31092;51.924;21.448;2024-03-08T07:39:41;39.78;;;18.30;;
45356;SDS011;31092;51.924;21.448;2024-03-08T07:42:07;45.00;;;19.45;;
45356;SDS011;31092;51.924;21.448;2024-03-08T07:44:32;43.00;;;19.60;;
45356;SDS011;31092;51.924;21.448;2024-03-08T07:46:58;40.25;;;19.70;;
45356;SDS011;31092;51.924;21.448;2024-03-08T07:49:24;43.88;;;19.77;;
45356;SDS011;31092;51.924;21.448;2024-03-08T07:51:49;40.92;;;19.02;;
45356;SDS011;31092;51.924;21.448;2024-03-08T07:54:15;38.22;;;18.10;;
45356;SDS011;31092;51.924;21.448;2024-03-08T07:56:41;42.22;;;18.83;;
45356;SDS011;31092;51.924;21.448;2024-03-08T07:59:07;46.63;;;20.10;;
45356;SDS011;31092;51.924;21.448;2024-03-08T08:01:33;43.88;;;20.80;;
45356;SDS011;31092;51.924;21.448;2024-03-08T08:03:58;46.38;;;22.05;;
45356;SDS011;31092;51.924;21.448;2024-03-08T08:06:24;40.20;;;18.85;;
45356;SDS011;31092;51.924;21.448;2024-03-08T08:08:50;30.33;;;16.25;;
45356;SDS011;31092;51.924;21.448;2024-03-08T08:11:16;33.38;;;16.48;;
45356;SDS011;31092;51.924;21.448;2024-03-08T08:13:41;34.40;;;16.55;;
45356;SDS011;31092;51.924;21.448;2024-03-08T08:16:08;35.15;;;14.70;;
45356;SDS011;31092;51.924;21.448;2024-03-08T08:18:35;26.05;;;12.52;;
45356;SDS011;31092;51.924;21.448;2024-03-08T08:21:01;33.33;;;17.38;;
45356;SDS011;31092;51.924;21.448;2024-03-08T08:23:27;34.65;;;16.25;;
45356;SDS011;31092;51.924;21.448;2024-03-08T08:25:54;30.20;;;14.05;;
45356;SDS011;31092;51.924;21.448;2024-03-08T08:28:20;35.08;;;16.50;;
45356;SDS011;31092;51.924;21.448;2024-03-08T08:30:46;34.00;;;16.83;;
45356;SDS011;31092;51.924;21.448;2024-03-08T08:33:11;28.63;;;14.32;;
45356;SDS011;31092;51.924;21.448;2024-03-08T08:35:37;31.15;;;14.93;;
45356;SDS011;31092;51.924;21.448;2024-03-08T08:38:04;25.20;;;13.55;;
45356;SDS011;31092;51.924;21.448;2024-03-08T08:40:35;29.40;;;14.48;;
45356;SDS011;31092;51.924;21.448;2024-03-08T08:43:01;27.00;;;13.85;;
45356;SDS011;31092;51.924;21.448;2024-03-08T08:45:29;30.63;;;15.38;;
45356;SDS011;31092;51.924;21.448;2024-03-08T08:47:58;22.58;;;12.93;;
45356;SDS011;31092;51.924;21.448;2024-03-08T08:50:25;21.17;;;12.15;;
45356;SDS011;31092;51.924;21.448;2024-03-08T08:52:53;19.67;;;10.90;;
45356;SDS011;31092;51.924;21.448;2024-03-08T08:55:19;19.23;;;9.68;;
45356;SDS011;31092;51.924;21.448;2024-03-08T08:57:50;15.85;;;8.60;;
45356;SDS011;31092;51.924;21.448;2024-03-08T09:00:17;17.52;;;8.73;;
45356;SDS011;31092;51.924;21.448;2024-03-08T09:02:44;14.68;;;8.65;;
45356;SDS011;31092;51.924;21.448;2024-03-08T09:05:10;21.38;;;8.77;;
45356;SDS011;31092;51.924;21.448;2024-03-08T09:07:42;16.02;;;9.13;;
45356;SDS011;31092;51.924;21.448;2024-03-08T09:10:11;15.70;;;8.73;;
45356;SDS011;31092;51.924;21.448;2024-03-08T09:12:38;15.30;;;8.43;;
45356;SDS011;31092;51.924;21.448;2024-03-08T09:15:04;11.82;;;7.80;;
45356;SDS011;31092;51.924;21.448;2024-03-08T09:17:33;14.48;;;8.15;;
45356;SDS011;31092;51.924;21.448;2024-03-08T09:19:59;14.13;;;7.95;;
45356;SDS011;31092;51.924;21.448;2024-03-08T09:22:24;14.85;;;8.25;;
45356;SDS011;31092;51.924;21.448;2024-03-08T09:24:50;14.73;;;8.73;;
45356;SDS011;31092;51.924;21.448;2024-03-08T09:27:15;13.00;;;7.85;;
45356;SDS011;31092;51.924;21.448;2024-03-08T09:29:41;13.63;;;7.97;;
45356;SDS011;31092;51.924;21.448;2024-03-08T09:32:06;16.02;;;8.27;;
45356;SDS011;31092;51.924;21.448;2024-03-08T09:34:32;15.38;;;8.23;;
45356;SDS011;31092;51.924;21.448;2024-03-08T09:36:59;13.98;;;7.53;;
45356;SDS011;31092;51.924;21.448;2024-03-08T09:39:25;16.30;;;8.30;;
45356;SDS011;31092;51.924;21.448;2024-03-08T09:41:50;21.98;;;8.70;;
45356;SDS011;31092;51.924;21.448;2024-03-08T09:44:15;21.83;;;10.57;;
45356;SDS011;31092;51.924;21.448;2024-03-08T09:46:41;13.25;;;8.68;;
45356;SDS011;31092;51.924;21.448;2024-03-08T09:49:07;16.10;;;8.20;;
45356;SDS011;31092;51.924;21.448;2024-03-08T09:51:34;13.35;;;7.65;;
45356;SDS011;31092;51.924;21.448;2024-03-08T09:54:05;12.98;;;7.82;;
45356;SDS011;31092;51.924;21.448;2024-03-08T09:56:34;11.93;;;7.10;;
45356;SDS011;31092;51.924;21.448;2024-03-08T09:59:01;14.13;;;7.57;;
45356;SDS011;31092;51.924;21.448;2024-03-08T10:01:50;15.07;;;8.10;;
45356;SDS011;31092;51.924;21.448;2024-03-08T10:04:17;13.23;;;7.75;;
45356;SDS011;31092;51.924;21.448;2024-03-08T10:06:43;10.52;;;7.15;;
45356;SDS011;31092;51.924;21.448;2024-03-08T10:09:12;21.88;;;12.63;;
45356;SDS011;31092;51.924;21.448;2024-03-08T10:11:37;13.88;;;7.82;;
45356;SDS011;31092;51.924;21.448;2024-03-08T10:14:04;11.35;;;7.25;;
45356;SDS011;31092;51.924;21.448;2024-03-08T10:16:31;13.18;;;7.35;;
45356;SDS011;31092;51.924;21.448;2024-03-08T10:18:56;11.82;;;7.20;;
45356;SDS011;31092;51.924;21.448;2024-03-08T10:21:22;15.95;;;7.95;;
45356;SDS011;31092;51.924;21.448;2024-03-08T10:23:48;13.90;;;6.80;;
45356;SDS011;31092;51.924;21.448;2024-03-08T10:26:14;14.80;;;6.68;;
45356;SDS011;31092;51.924;21.448;2024-03-08T10:28:49;14.40;;;7.00;;
45356;SDS011;31092;51.924;21.448;2024-03-08T10:31:16;10.73;;;6.95;;
45356;SDS011;31092;51.924;21.448;2024-03-08T10:33:43;12.32;;;8.07;;
45356;SDS011;31092;51.924;21.448;2024-03-08T10:36:10;8.82;;;5.97;;
45356;SDS011;31092;51.924;21.448;2024-03-08T10:38:37;13.10;;;7.40;;
45356;SDS011;31092;51.924;21.448;2024-03-08T10:41:05;12.60;;;7.78;;
45356;SDS011;31092;51.924;21.448;2024-03-08T10:43:32;9.57;;;7.07;;
45356;SDS011;31092;51.924;21.448;2024-03-08T10:49:08;14.10;;;7.60;;
45356;SDS011;31092;51.924;21.448;2024-03-08T10:51:40;10.13;;;7.07;;
45356;SDS011;31092;51.924;21.448;2024-03-08T10:54:07;14.65;;;7.78;;
45356;SDS011;31092;51.924;21.448;2024-03-08T10:56:35;11.02;;;7.25;;
45356;SDS011;31092;51.924;21.448;2024-03-08T10:59:01;9.73;;;6.22;;
45356;SDS011;31092;51.924;21.448;2024-03-08T11:01:29;13.18;;;6.28;;
45356;SDS011;31092;51.924;21.448;2024-03-08T11:03:54;12.07;;;6.93;;
45356;SDS011;31092;51.924;21.448;2024-03-08T11:11:28;12.90;;;5.88;;
45356;SDS011;31092;51.924;21.448;2024-03-08T11:13:56;8.77;;;6.00;;
45356;SDS011;31092;51.924;21.448;2024-03-08T11:18:54;10.50;;;6.63;;
45356;SDS011;31092;51.924;21.448;2024-03-08T11:21:25;9.45;;;6.38;;
45356;SDS011;31092;51.924;21.448;2024-03-08T11:24:01;15.68;;;7.38;;
45356;SDS011;31092;51.924;21.448;2024-03-08T11:26:32;11.18;;;6.70;;
45356;SDS011;31092;51.924;21.448;2024-03-08T11:32:05;10.10;;;5.95;;
45356;SDS011;31092;51.924;21.448;2024-03-08T11:34:39;12.98;;;6.90;;
45356;SDS011;31092;51.924;21.448;2024-03-08T11:37:14;10.25;;;6.60;;
45356;SDS011;31092;51.924;21.448;2024-03-08T11:39:54;13.30;;;8.32;;
45356;SDS011;31092;51.924;21.448;2024-03-08T11:42:24;15.95;;;9.43;;
45356;SDS011;31092;51.924;21.448;2024-03-08T11:44:51;10.07;;;7.15;;
45356;SDS011;31092;51.924;21.448;2024-03-08T11:47:17;11.82;;;7.03;;
45356;SDS011;31092;51.924;21.448;2024-03-08T11:49:43;10.38;;;6.20;;
45356;SDS011;31092;51.924;21.448;2024-03-08T11:52:13;12.15;;;6.07;;
45356;SDS011;31092;51.924;21.448;2024-03-08T11:54:41;11.32;;;6.30;;
45356;SDS011;31092;51.924;21.448;2024-03-08T11:57:08;9.25;;;6.25;;
45356;SDS011;31092;51.924;21.448;2024-03-08T11:59:35;11.02;;;6.57;;
45356;SDS011;31092;51.924;21.448;2024-03-08T12:02:06;10.50;;;6.97;;
45356;SDS011;31092;51.924;21.448;2024-03-08T12:04:35;8.52;;;5.93;;
45356;SDS011;31092;51.924;21.448;2024-03-08T12:07:01;9.23;;;6.40;;
45356;SDS011;31092;51.924;21.448;2024-03-08T12:09:27;10.00;;;5.93;;
45356;SDS011;31092;51.924;21.448;2024-03-08T12:11:54;8.82;;;5.43;;
45356;SDS011;31092;51.924;21.448;2024-03-08T12:14:19;12.90;;;6.75;;
45356;SDS011;31092;51.924;21.448;2024-03-08T12:16:46;12.32;;;6.28;;
45356;SDS011;31092;51.924;21.448;2024-03-08T12:19:13;10.85;;;5.68;;
45356;SDS011;31092;51.924;21.448;2024-03-08T12:21:39;12.45;;;6.68;;
45356;SDS011;31092;51.924;21.448;2024-03-08T12:24:13;10.57;;;7.22;;
45356;SDS011;31092;51.924;21.448;2024-03-08T12:26:44;12.20;;;6.95;;
45356;SDS011;31092;51.924;21.448;2024-03-08T12:29:25;13.18;;;6.57;;
45356;SDS011;31092;51.924;21.448;2024-03-08T12:31:57;10.50;;;6.72;;
45356;SDS011;31092;51.924;21.448;2024-03-08T12:34:25;13.15;;;6.03;;
45356;SDS011;31092;51.924;21.448;2024-03-08T12:36:53;10.73;;;6.70;;
45356;SDS011;31092;51.924;21.448;2024-03-08T12:39:19;11.70;;;6.18;;
45356;SDS011;31092;51.924;21.448;2024-03-08T12:41:47;9.98;;;6.00;;
45356;SDS011;31092;51.924;21.448;2024-03-08T12:44:14;9.90;;;6.40;;
45356;SDS011;31092;51.924;21.448;2024-03-08T12:46:40;9.88;;;6.82;;
45356;SDS011;31092;51.924;21.448;2024-03-08T12:49:08;13.27;;;7.07;;
45356;SDS011;31092;51.924;21.448;2024-03-08T12:51:37;12.07;;;7.45;;
45356;SDS011;31092;51.924;21.448;2024-03-08T12:54:04;10.60;;;5.75;;
45356;SDS011;31092;51.924;21.448;2024-03-08T12:56:32;12.05;;;6.35;;
45356;SDS011;31092;51.924;21.448;2024-03-08T12:58:59;13.02;;;6.35;;
45356;SDS011;31092;51.924;21.448;2024-03-08T13:01:26;8.20;;;5.78;;
45356;SDS011;31092;51.924;21.448;2024-03-08T13:03:56;12.48;;;6.15;;
45356;SDS011;31092;51.924;21.448;2024-03-08T13:06:22;9.45;;;5.65;;
45356;SDS011;31092;51.924;21.448;2024-03-08T13:08:49;9.95;;;5.35;;
45356;SDS011;31092;51.924;21.448;2024-03-08T13:11:17;7.85;;;5.93;;
45356;SDS011;31092;51.924;21.448;2024-03-08T13:13:44;12.43;;;5.90;;
45356;SDS011;31092;51.924;21.448;2024-03-08T13:16:10;10.50;;;6.07;;
45356;SDS011;31092;51.924;21.448;2024-03-08T13:18:37;11.85;;;7.00;;
45356;SDS011;31092;51.924;21.448;2024-03-08T13:21:03;9.77;;;5.85;;
45356;SDS011;31092;51.924;21.448;2024-03-08T13:23:33;10.10;;;6.30;;
45356;SDS011;31092;51.924;21.448;2024-03-08T13:26:04;46.60;;;21.25;;
45356;SDS011;31092;51.924;21.448;2024-03-08T13:28:30;20.27;;;10.07;;
45356;SDS011;31092;51.924;21.448;2024-03-08T13:31:01;26.23;;;11.63;;
45356;SDS011;31092;51.924;21.448;2024-03-08T13:33:28;12.77;;;6.82;;
45356;SDS011;31092;51.924;21.448;2024-03-08T13:35:53;12.27;;;6.80;;
45356;SDS011;31092;51.924;21.448;2024-03-08T13:38:19;9.07;;;6.47;;
45356;SDS011;31092;51.924;21.448;2024-03-08T13:40:45;12.68;;;6.53;;
45356;SDS011;31092;51.924;21.448;2024-03-08T13:43:12;13.40;;;5.82;;
45356;SDS011;31092;51.924;21.448;2024-03-08T13:45:38;9.63;;;6.57;;
45356;SDS011;31092;51.924;21.448;2024-03-08T13:48:03;12.02;;;6.40;;
45356;SDS011;31092;51.924;21.448;2024-03-08T13:50:30;11.60;;;6.13;;
45356;SDS011;31092;51.924;21.448;2024-03-08T13:52:55;9.88;;;6.18;;
45356;SDS011;31092;51.924;21.448;2024-03-08T13:55:21;10.07;;;5.50;;
45356;SDS011;31092;51.924;21.448;2024-03-08T13:57:48;11.23;;;5.68;;
45356;SDS011;31092;51.924;21.448;2024-03-08T14:00:14;10.43;;;6.38;;
45356;SDS011;31092;51.924;21.448;2024-03-08T14:02:40;11.38;;;6.20;;
45356;SDS011;31092;51.924;21.448;2024-03-08T14:05:08;9.52;;;5.63;;
45356;SDS011;31092;51.924;21.448;2024-03-08T14:07:37;20.15;;;8.35;;
45356;SDS011;31092;51.924;21.448;2024-03-08T14:10:02;10.00;;;6.18;;
45356;SDS011;31092;51.924;21.448;2024-03-08T14:12:28;14.77;;;8.75;;
45356;SDS011;31092;51.924;21.448;2024-03-08T14:14:54;12.30;;;5.95;;
45356;SDS011;31092;51.924;21.448;2024-03-08T14:17:20;12.55;;;6.60;;
45356;SDS011;31092;51.924;21.448;2024-03-08T14:19:46;10.25;;;6.05;;
45356;SDS011;31092;51.924;21.448;2024-03-08T14:22:11;9.95;;;5.88;;
45356;SDS011;31092;51.924;21.448;2024-03-08T14:24:39;11.77;;;6.35;;
45356;SDS011;31092;51.924;21.448;2024-03-08T14:27:07;10.02;;;5.00;;
45356;SDS011;31092;51.924;21.448;2024-03-08T14:29:34;10.52;;;6.22;;
45356;SDS011;31092;51.924;21.448;2024-03-08T14:32:00;10.55;;;6.05;;